This is the latest recevied weather packets stored in our database for station/object AI5KP-13. If no packets are shown the sender has not sent any weather packets the latest 10 day(s).
| Time | Temp. | Humidity | Pressure | Rain* | Wind** | Luminosity | Snow |
|---|---|---|---|---|---|---|---|
| 1778025551 | 10.56° C | 94% | 1007.6 hPa | 0 mm | - | 12 W/m² | - |
| 1778025250 | 11.11° C | 94% | 1007.7 hPa | 0 mm | - | 12 W/m² | - |
| 1778024946 | 11.11° C | 94% | 1007.6 hPa | 0 mm | - | 11 W/m² | - |
| 1778024644 | 11.11° C | 94% | 1007.7 hPa | 0 mm | - | 13 W/m² | - |
| 1778024340 | 11.67° C | 94% | 1007.3 hPa | 0 mm | - | 13 W/m² | - |
| 1778024038 | 11.67° C | 93% | 1006.9 hPa | 0 mm | - | 24 W/m² | - |
| 1778023735 | 11.67° C | 94% | 1007 hPa | 0 mm | - | 17 W/m² | - |
| 1778023433 | 11.67° C | 94% | 1006.9 hPa | 0 mm | - | 14 W/m² | - |
| 1778023129 | 12.22° C | 93% | 1007 hPa | 0 mm | - | 14 W/m² | - |
| 1778022827 | 12.22° C | 92% | 1007.1 hPa | 0 mm | - | 15 W/m² | - |
| 1778022525 | 12.22° C | 92% | 1007.1 hPa | 0 mm | - | 19 W/m² | - |
| 1778022222 | 12.78° C | 91% | 1007 hPa | 0 mm | - | 21 W/m² | - |
| 1778021919 | 12.78° C | 90% | 1007 hPa | 0 mm | - | 18 W/m² | - |
| 1778021617 | 12.78° C | 90% | 1006.8 hPa | 0 mm | - | 18 W/m² | - |
| 1778021317 | 12.78° C | 90% | 1006.7 hPa | 0 mm | - | 18 W/m² | - |
| 1778021015 | 12.78° C | 90% | 1006 hPa | 0 mm | - | 23 W/m² | - |
| 1778020712 | 12.78° C | 89% | 1005.6 hPa | 0 mm | - | 36 W/m² | - |
| 1778020409 | 12.78° C | 90% | 1006 hPa | 0 mm | - | 31 W/m² | - |
| 1778020104 | 13.33° C | 90% | 1006.6 hPa | 0 mm | - | 25 W/m² | - |
| 1778019801 | 13.33° C | 89% | 1006.8 hPa | 0 mm | - | 24 W/m² | - |
| 1778019498 | 13.33° C | 89% | 1007 hPa | 0 mm | - | 19 W/m² | - |
| 1778019195 | 13.89° C | 89% | 1006.8 hPa | 0 mm | - | 15 W/m² | - |
| 1778018892 | 13.89° C | 89% | 1006.5 hPa | 0 mm | - | 29 W/m² | - |
| 1778018589 | 13.89° C | 89% | 1006.1 hPa | 0 mm | - | 34 W/m² | - |
| 1778018287 | 13.89° C | 89% | 1006 hPa | 0 mm | - | 37 W/m² | - |
* Rain latest hour (hover to see other rain measurements)
** Current wind speed in m/s (hover to see current wind gust speed)